Time;durP1;ratioP1;P1;durP2;ratioP2;P2;SDS_P1;SDS_P2;PMS_P1;PMS_P2;Temp;Humidity;BMP_temperature;BMP_pressure;BME280_temperature;BME280_humidity;BME280_pressure;Samples;Min_cycle;Max_cycle;Signal;HPM_P1;HPM_P2
2022/03/08 00:00:42;;;;;;;10.25;6.63;;;1.80;99.90;;;;;;5042726;28;20052;-58
2022/03/08 00:03:08;;;;;;;11.52;6.80;;;1.80;99.90;;;;;;5023357;28;20061;-58
2022/03/08 00:05:34;;;;;;;12.57;7.07;;;1.80;99.90;;;;;;5035085;28;20076;-58
2022/03/08 00:08:03;;;;;;;13.40;7.80;;;1.80;99.90;;;;;;5020170;28;20742;-58
2022/03/08 00:10:29;;;;;;;10.65;6.50;;;1.70;99.90;;;;;;5042249;28;20480;-57
2022/03/08 00:12:55;;;;;;;10.35;7.13;;;1.70;99.90;;;;;;5008088;28;20739;-57
2022/03/08 00:15:24;;;;;;;10.48;7.05;;;1.60;99.90;;;;;;5041299;28;20045;-58
2022/03/08 00:17:52;;;;;;;10.85;7.25;;;1.60;99.90;;;;;;5042545;28;20052;-58
2022/03/08 00:20:19;;;;;;;11.40;8.02;;;1.50;99.90;;;;;;5041164;28;20071;-58
2022/03/08 00:22:46;;;;;;;10.82;6.72;;;1.40;99.90;;;;;;5041611;28;20045;-58
2022/03/08 00:25:13;;;;;;;11.55;7.03;;;1.30;99.90;;;;;;5040450;28;20047;-58
2022/03/08 00:27:45;;;;;;;12.13;7.47;;;1.20;99.90;;;;;;5040257;28;20606;-57
2022/03/08 00:30:12;;;;;;;;;;;1.10;99.90;;;;;;5057452;28;20083;-58
2022/03/08 00:32:38;;;;;;;10.82;6.63;;;1.00;99.90;;;;;;5040233;28;19990;-58
2022/03/08 00:35:05;;;;;;;10.35;7.47;;;0.90;99.90;;;;;;5010572;28;20077;-57
2022/03/08 00:37:31;;;;;;;11.48;7.50;;;0.90;99.90;;;;;;5043951;28;20111;-57
2022/03/08 00:39:58;;;;;;;10.93;7.18;;;0.80;99.90;;;;;;5043671;28;20044;-57
2022/03/08 00:42:25;;;;;;;10.30;7.22;;;0.80;99.90;;;;;;5027428;28;20049;-58
2022/03/08 00:44:51;;;;;;;11.90;6.88;;;0.70;99.90;;;;;;5045997;28;20049;-58
2022/03/08 00:47:17;;;;;;;10.02;6.65;;;0.70;99.90;;;;;;5044149;28;20045;-58
2022/03/08 00:49:43;;;;;;;11.43;7.80;;;0.60;99.90;;;;;;5044978;28;20048;-58
2022/03/08 00:52:11;;;;;;;9.68;7.25;;;0.60;99.90;;;;;;5041361;28;20052;-58
2022/03/08 00:54:37;;;;;;;12.07;7.43;;;0.50;99.90;;;;;;5042436;28;20059;-58
2022/03/08 00:57:06;;;;;;;11.10;7.40;;;0.40;99.90;;;;;;5031989;28;20151;-57
2022/03/08 00:59:33;;;;;;;11.90;7.50;;;0.50;99.90;;;;;;5045696;28;20083;-57
2022/03/08 01:01:59;;;;;;;13.57;8.80;;;0.50;99.90;;;;;;5044601;28;20067;-57
2022/03/08 01:04:26;;;;;;;12.45;7.95;;;0.40;99.90;;;;;;5044956;28;20575;-57
2022/03/08 01:06:52;;;;;;;11.95;7.70;;;0.40;99.90;;;;;;5032927;28;20389;-57
2022/03/08 01:09:18;;;;;;;12.98;8.18;;;0.40;99.90;;;;;;5044355;28;20045;-57
2022/03/08 01:11:44;;;;;;;11.10;7.90;;;0.40;99.90;;;;;;5045000;28;20059;-58
2022/03/08 01:14:10;;;;;;;13.45;8.13;;;0.40;99.90;;;;;;5043224;28;20045;-58
2022/03/08 01:16:37;;;;;;;12.90;8.35;;;0.40;99.90;;;;;;5045279;28;20033;-57
2022/03/08 01:19:05;;;;;;;12.68;8.30;;;0.40;99.90;;;;;;5045228;28;20557;-56
2022/03/08 01:21:34;;;;;;;14.45;8.85;;;0.40;99.90;;;;;;5043787;28;20110;-57
2022/03/08 01:24:00;;;;;;;12.65;7.75;;;0.40;99.90;;;;;;5025570;28;20122;-57
2022/03/08 01:26:26;;;;;;;14.23;9.48;;;0.30;99.90;;;;;;5044823;28;20055;-57
2022/03/08 01:28:56;;;;;;;14.43;8.88;;;0.40;99.90;;;;;;5042465;28;20049;-57
2022/03/08 01:31:22;;;;;;;13.63;8.52;;;0.40;99.90;;;;;;5042535;28;20087;-57
2022/03/08 01:33:51;;;;;;;13.25;9.00;;;0.40;99.90;;;;;;5060905;28;20075;-58
2022/03/08 01:36:17;;;;;;;15.85;8.80;;;0.40;99.90;;;;;;5059933;28;20146;-57
2022/03/08 01:38:43;;;;;;;12.88;8.85;;;0.40;99.90;;;;;;5045001;28;20175;-57
2022/03/08 01:41:10;;;;;;;15.02;8.85;;;0.40;99.90;;;;;;5059279;28;20122;-57
2022/03/08 01:43:36;;;;;;;12.38;8.57;;;0.30;99.90;;;;;;5027572;28;20061;-57
2022/03/08 01:46:02;;;;;;;13.23;9.07;;;0.30;99.90;;;;;;5023072;28;20102;-57
2022/03/08 01:48:28;;;;;;;12.73;8.82;;;0.20;99.90;;;;;;5042653;28;20230;-57
2022/03/08 01:50:56;;;;;;;13.65;9.65;;;0.20;99.90;;;;;;5041940;28;20175;-57
2022/03/08 01:53:22;;;;;;;15.85;9.68;;;0.20;99.90;;;;;;5044580;28;20045;-57
2022/03/08 01:55:50;;;;;;;15.20;8.98;;;0.30;99.90;;;;;;5058708;28;20567;-58
2022/03/08 01:58:16;;;;;;;13.90;9.52;;;0.30;99.90;;;;;;5043264;28;20071;-57
2022/03/08 02:00:43;;;;;;;14.65;9.88;;;0.40;99.90;;;;;;5043596;28;20099;-58
2022/03/08 02:03:09;;;;;;;14.35;9.93;;;0.40;99.90;;;;;;5043119;28;20053;-57
2022/03/08 02:05:35;;;;;;;15.90;10.55;;;0.40;99.90;;;;;;5025065;28;20334;-56
2022/03/08 02:08:01;;;;;;;15.20;10.32;;;0.40;99.90;;;;;;5043374;28;20057;-57
2022/03/08 02:10:27;;;;;;;15.35;10.48;;;0.40;99.90;;;;;;5043593;28;20781;-57
2022/03/08 02:12:53;;;;;;;15.27;10.35;;;0.30;99.90;;;;;;5043315;28;20503;-57
2022/03/08 02:15:25;;;;;;;15.85;11.02;;;0.40;99.90;;;;;;5040756;28;20763;-58
2022/03/08 02:17:52;;;;;;;15.18;9.65;;;0.40;99.90;;;;;;5026476;28;20543;-57
2022/03/08 02:20:18;;;;;;;15.05;10.45;;;0.30;99.90;;;;;;5042534;28;20088;-58
2022/03/08 02:22:47;;;;;;;16.35;10.40;;;0.30;99.90;;;;;;5041347;28;20041;-57
2022/03/08 02:25:14;;;;;;;16.52;10.23;;;0.30;99.90;;;;;;5035051;28;20052;-58
2022/03/08 02:27:43;;;;;;;15.82;10.70;;;0.30;99.90;;;;;;5044257;28;20171;-57
2022/03/08 02:30:10;;;;;;;15.38;10.38;;;0.30;99.90;;;;;;5042166;28;20753;-58
2022/03/08 02:32:37;;;;;;;17.65;12.23;;;0.30;99.90;;;;;;5043917;28;20094;-57
2022/03/08 02:35:12;;;;;;;17.23;9.93;;;0.30;99.90;;;;;;5026112;28;20175;-58
2022/03/08 02:37:41;;;;;;;17.88;12.07;;;0.30;99.90;;;;;;5042621;28;20048;-57
2022/03/08 02:40:09;;;;;;;19.15;11.88;;;0.30;99.90;;;;;;5025673;28;20132;-58
2022/03/08 02:42:35;;;;;;;14.68;11.73;;;0.30;99.90;;;;;;5042967;28;20099;-58
2022/03/08 02:45:06;;;;;;;18.95;11.55;;;0.30;99.90;;;;;;5025750;28;20128;-58
2022/03/08 02:47:32;;;;;;;16.30;11.07;;;0.40;99.90;;;;;;5042057;28;20107;-58
2022/03/08 02:49:59;;;;;;;13.70;10.88;;;0.40;99.90;;;;;;5043275;28;20082;-58
2022/03/08 02:52:25;;;;;;;18.05;12.48;;;0.40;99.90;;;;;;5043173;28;20056;-58
2022/03/08 02:54:51;;;;;;;19.33;10.85;;;0.50;99.90;;;;;;5043109;28;20044;-58
2022/03/08 02:57:17;;;;;;;20.08;12.98;;;0.50;99.90;;;;;;5042696;28;20139;-58
2022/03/08 02:59:43;;;;;;;18.27;12.70;;;0.40;99.90;;;;;;5041750;28;20036;-57
2022/03/08 03:02:09;;;;;;;18.27;11.93;;;0.50;99.90;;;;;;5041960;28;20044;-57
2022/03/08 03:04:36;;;;;;;17.25;12.52;;;0.50;99.90;;;;;;5042383;28;20385;-58
2022/03/08 03:07:02;;;;;;;16.95;13.20;;;0.40;99.90;;;;;;5043179;28;20048;-57
2022/03/08 03:09:28;;;;;;;18.38;12.43;;;0.40;99.90;;;;;;5025291;28;20052;-58
2022/03/08 03:11:54;;;;;;;16.80;12.68;;;0.40;99.90;;;;;;5040640;28;20110;-58
2022/03/08 03:14:21;;;;;;;17.48;12.52;;;0.40;99.90;;;;;;5040374;28;20049;-58
2022/03/08 03:16:47;;;;;;;16.55;13.02;;;0.40;99.90;;;;;;5025471;28;20508;-58
2022/03/08 03:19:13;;;;;;;18.73;12.95;;;0.50;99.90;;;;;;5042287;28;20049;-58
2022/03/08 03:21:39;;;;;;;17.33;13.00;;;0.40;99.90;;;;;;5001351;28;20052;-58
2022/03/08 03:24:05;;;;;;;19.63;13.25;;;0.50;99.90;;;;;;5042766;28;20082;-58
2022/03/08 03:26:31;;;;;;;19.23;13.30;;;0.40;99.90;;;;;;5043255;28;20076;-59
2022/03/08 03:28:57;;;;;;;23.42;12.57;;;0.40;99.90;;;;;;5040869;28;20059;-58
2022/03/08 03:31:23;;;;;;;19.52;13.70;;;0.40;99.90;;;;;;5041690;28;20049;-58
2022/03/08 03:33:49;;;;;;;17.05;11.77;;;0.40;99.90;;;;;;5041402;28;20059;-57
2022/03/08 03:36:15;;;;;;;17.20;12.40;;;0.40;99.90;;;;;;5041401;28;20084;-58
2022/03/08 03:38:42;;;;;;;16.77;11.73;;;0.40;99.90;;;;;;5042525;28;20076;-58
2022/03/08 03:41:09;;;;;;;19.08;13.55;;;0.40;99.90;;;;;;5042055;28;20055;-58
2022/03/08 03:43:35;;;;;;;18.00;13.63;;;0.30;99.90;;;;;;5041994;28;20044;-58
2022/03/08 03:46:01;;;;;;;18.90;13.88;;;0.30;99.90;;;;;;5025557;28;20595;-58
2022/03/08 03:48:27;;;;;;;17.15;12.30;;;0.30;99.90;;;;;;5024254;28;20111;-58
2022/03/08 03:50:53;;;;;;;19.05;13.48;;;0.30;99.90;;;;;;5042702;28;20086;-57
2022/03/08 03:53:19;;;;;;;21.45;13.85;;;0.30;99.90;;;;;;5040212;28;20057;-58
2022/03/08 03:55:45;;;;;;;21.20;14.60;;;0.30;99.90;;;;;;5041829;28;20056;-58
2022/03/08 03:58:11;;;;;;;20.98;14.63;;;0.30;99.90;;;;;;5040891;28;20871;-58
2022/03/08 04:00:37;;;;;;;17.67;12.98;;;0.30;99.90;;;;;;5040576;28;20785;-58
2022/03/08 04:03:04;;;;;;;21.00;14.90;;;0.30;99.90;;;;;;5021164;28;20500;-58
2022/03/08 04:05:30;;;;;;;20.65;13.80;;;0.30;99.90;;;;;;5039896;28;20075;-58
2022/03/08 04:07:56;;;;;;;20.50;14.23;;;0.30;99.90;;;;;;5042436;28;20063;-58
2022/03/08 04:10:22;;;;;;;19.75;14.50;;;0.30;99.90;;;;;;5043726;28;20144;-58
2022/03/08 04:12:48;;;;;;;19.42;14.57;;;0.30;99.90;;;;;;5045818;28;20045;-57
2022/03/08 04:15:14;;;;;;;21.48;16.05;;;0.30;99.90;;;;;;5046689;28;20045;-58
2022/03/08 04:17:40;;;;;;;22.20;14.63;;;0.30;99.90;;;;;;5044330;28;20106;-58
2022/03/08 04:20:09;;;;;;;21.65;15.55;;;0.30;99.90;;;;;;5028961;28;20092;-58
2022/03/08 04:22:35;;;;;;;19.90;15.02;;;0.30;99.90;;;;;;5046236;28;20057;-58
2022/03/08 04:25:02;;;;;;;18.95;14.77;;;0.30;99.90;;;;;;5045888;28;20467;-58
2022/03/08 04:27:28;;;;;;;21.13;13.90;;;0.20;99.90;;;;;;5045312;28;20044;-58
2022/03/08 04:29:54;;;;;;;19.42;13.32;;;0.20;99.90;;;;;;5046189;28;20128;-58
2022/03/08 04:32:21;;;;;;;22.98;15.90;;;0.20;99.90;;;;;;5045244;28;20546;-58
2022/03/08 04:34:47;;;;;;;21.50;15.43;;;0.20;99.90;;;;;;5012222;28;20132;-58
2022/03/08 04:37:13;;;;;;;23.48;16.70;;;0.20;99.90;;;;;;5026763;28;20136;-58
2022/03/08 04:39:39;;;;;;;23.35;16.65;;;0.20;99.90;;;;;;5044009;28;20053;-58
2022/03/08 04:42:05;;;;;;;21.20;15.85;;;0.30;99.90;;;;;;5043947;28;20080;-58
2022/03/08 04:44:31;;;;;;;21.48;15.73;;;0.10;99.90;;;;;;5024944;28;20057;-58
2022/03/08 04:46:57;;;;;;;22.20;16.05;;;0.10;99.90;;;;;;5036154;28;20045;-58
2022/03/08 04:49:25;;;;;;;22.90;16.13;;;0.10;99.90;;;;;;5045568;28;20380;-58
2022/03/08 04:51:51;;;;;;;21.42;15.40;;;0.10;99.90;;;;;;5045043;28;20098;-59
2022/03/08 04:54:17;;;;;;;20.52;14.85;;;0.10;99.90;;;;;;5045297;28;20160;-58
2022/03/08 04:56:43;;;;;;;21.65;15.77;;;0.10;99.90;;;;;;5045238;28;20037;-58
2022/03/08 04:59:09;;;;;;;24.70;16.23;;;0.10;99.90;;;;;;5044810;28;20075;-58
2022/03/08 05:01:35;;;;;;;22.92;15.68;;;0.10;99.90;;;;;;5044430;28;20181;-58
2022/03/08 05:04:01;;;;;;;22.83;15.20;;;0.10;99.90;;;;;;5044462;28;20128;-58
2022/03/08 05:06:30;;;;;;;21.40;15.57;;;0.10;99.90;;;;;;5026767;28;20044;-58
2022/03/08 05:08:56;;;;;;;22.10;17.10;;;0.10;99.90;;;;;;5044169;28;20099;-58
2022/03/08 05:11:23;;;;;;;22.40;16.63;;;0.10;99.90;;;;;;5042977;28;20041;-58
2022/03/08 05:13:49;;;;;;;22.63;15.88;;;0.10;99.90;;;;;;5045539;28;20377;-58
2022/03/08 05:16:15;;;;;;;19.77;14.95;;;0.10;99.90;;;;;;5043097;28;20053;-58
2022/03/08 05:18:41;;;;;;;19.23;14.45;;;0.10;99.90;;;;;;5044307;28;20061;-58
2022/03/08 05:21:07;;;;;;;22.27;16.02;;;0.10;99.90;;;;;;5036716;28;20057;-58
2022/03/08 05:23:33;;;;;;;21.27;14.85;;;0.10;99.90;;;;;;5043071;28;20354;-58
2022/03/08 05:25:59;;;;;;;21.83;15.43;;;0.20;99.90;;;;;;5044731;28;20048;-58
2022/03/08 05:28:25;;;;;;;21.85;15.38;;;0.10;99.90;;;;;;5044667;28;20045;-58
2022/03/08 05:30:51;;;;;;;22.23;15.15;;;0.10;99.90;;;;;;5042343;28;20080;-58
2022/03/08 05:33:18;;;;;;;22.77;14.95;;;0.10;99.90;;;;;;5041543;28;20486;-58
2022/03/08 05:35:44;;;;;;;22.35;14.88;;;0.10;99.90;;;;;;5041992;28;20044;-58
2022/03/08 05:38:10;;;;;;;23.90;14.98;;;0.10;99.90;;;;;;5042160;28;20051;-60
2022/03/08 05:40:36;;;;;;;21.65;14.32;;;0.00;99.90;;;;;;5042340;28;20072;-58
2022/03/08 05:43:02;;;;;;;23.60;15.43;;;-0.10;99.90;;;;;;5007354;28;20635;-57
2022/03/08 05:45:29;;;;;;;21.80;16.15;;;-0.10;99.90;;;;;;5041872;28;20131;-58
2022/03/08 05:47:55;;;;;;;19.98;15.43;;;-0.10;99.90;;;;;;5045723;28;20321;-59
2022/03/08 05:50:21;;;;;;;23.08;15.52;;;-0.10;99.90;;;;;;5039907;28;20090;-59
2022/03/08 05:52:47;;;;;;;21.50;15.63;;;-0.20;99.90;;;;;;5041448;28;20159;-57
2022/03/08 05:55:13;;;;;;;24.25;16.40;;;-0.20;99.90;;;;;;5041386;28;20090;-59
2022/03/08 05:57:40;;;;;;;22.05;15.93;;;-0.20;99.90;;;;;;5043989;28;20045;-58
2022/03/08 06:00:07;;;;;;;26.13;15.77;;;-0.20;99.90;;;;;;5042684;28;20493;-59
2022/03/08 06:02:42;;;;;;;20.17;13.88;;;-0.20;99.90;;;;;;5042433;28;20123;-58
2022/03/08 06:05:09;;;;;;;24.42;15.43;;;-0.20;99.90;;;;;;5045008;28;20048;-58
2022/03/08 06:07:35;;;;;;;24.13;15.73;;;-0.20;99.90;;;;;;5041934;28;20322;-57
2022/03/08 06:10:01;;;;;;;19.42;14.45;;;-0.20;99.90;;;;;;5042786;28;20080;-59
2022/03/08 06:12:29;;;;;;;18.67;15.13;;;-0.20;99.90;;;;;;5008760;28;20056;-58
2022/03/08 06:14:55;;;;;;;20.85;14.90;;;-0.20;99.90;;;;;;5026054;28;20045;-58
2022/03/08 06:17:21;;;;;;;19.88;14.50;;;-0.20;99.90;;;;;;5042908;28;20049;-58
2022/03/08 06:19:47;;;;;;;21.73;15.25;;;-0.20;99.90;;;;;;5026258;28;20076;-58
2022/03/08 06:22:13;;;;;;;21.92;15.18;;;-0.20;99.90;;;;;;5044569;28;20045;-58
2022/03/08 06:24:39;;;;;;;20.15;14.20;;;-0.20;99.90;;;;;;5043296;28;20041;-57
2022/03/08 06:27:06;;;;;;;18.27;14.40;;;-0.30;99.90;;;;;;5044233;28;20057;-57
2022/03/08 06:29:32;;;;;;;18.33;14.45;;;-0.20;99.90;;;;;;5042022;28;20682;-57
2022/03/08 06:31:58;;;;;;;18.65;13.90;;;-0.10;99.90;;;;;;5040096;28;20661;-58
2022/03/08 06:34:24;;;;;;;18.95;14.43;;;-0.10;99.90;;;;;;5037325;28;20603;-58
2022/03/08 06:36:50;;;;;;;19.48;14.43;;;0.00;99.90;;;;;;5040109;28;20053;-58
2022/03/08 06:39:17;;;;;;;25.13;15.52;;;0.10;99.90;;;;;;5039481;28;20060;-58
2022/03/08 06:41:44;;;;;;;18.98;14.60;;;0.10;99.90;;;;;;5038821;28;20487;-58
2022/03/08 06:44:11;;;;;;;21.83;15.55;;;0.20;99.90;;;;;;5040929;28;20084;-57
2022/03/08 06:46:41;;;;;;;20.27;15.13;;;0.20;99.90;;;;;;5039365;28;20049;-58
2022/03/08 06:49:08;;;;;;;23.92;14.90;;;0.30;99.90;;;;;;5039840;28;20053;-58
2022/03/08 06:51:35;;;;;;;20.77;14.00;;;0.30;99.90;;;;;;5055596;28;20040;-57
2022/03/08 06:54:01;;;;;;;19.45;14.38;;;0.40;99.90;;;;;;5022200;28;20052;-58
2022/03/08 06:56:27;;;;;;;19.83;13.50;;;0.30;99.90;;;;;;5038797;28;20049;-57
2022/03/08 06:58:53;;;;;;;21.52;14.23;;;0.50;99.90;;;;;;5036773;28;20072;-58
2022/03/08 07:01:19;;;;;;;19.23;14.77;;;0.60;99.90;;;;;;5038558;28;20079;-58
2022/03/08 07:03:45;;;;;;;18.33;14.40;;;0.60;99.90;;;;;;5038838;28;20057;-58
2022/03/08 07:06:11;;;;;;;19.17;13.07;;;0.80;99.90;;;;;;5054274;28;20051;-58
2022/03/08 07:08:38;;;;;;;20.08;15.07;;;0.80;99.90;;;;;;5040777;28;20032;-57
2022/03/08 07:11:05;;;;;;;17.25;13.50;;;0.90;99.90;;;;;;5047516;28;20063;-58
2022/03/08 07:13:32;;;;;;;17.10;13.52;;;1.10;99.90;;;;;;5039036;28;20045;-59
2022/03/08 07:15:59;;;;;;;16.20;12.55;;;1.30;99.90;;;;;;5041139;28;20048;-58
2022/03/08 07:18:25;;;;;;;19.15;13.48;;;1.50;99.90;;;;;;5050988;28;20048;-57
2022/03/08 07:20:52;;;;;;;16.75;12.77;;;1.70;99.90;;;;;;5058575;28;20051;-57
2022/03/08 07:23:18;;;;;;;18.45;13.65;;;1.90;99.90;;;;;;5029718;28;20480;-58
2022/03/08 07:25:45;;;;;;;17.77;12.60;;;2.10;99.90;;;;;;5042592;28;20044;-57
2022/03/08 07:28:11;;;;;;;19.45;12.23;;;2.40;99.90;;;;;;5047309;28;20079;-57
2022/03/08 07:30:37;;;;;;;15.25;12.38;;;2.60;99.90;;;;;;5047250;28;20660;-57
2022/03/08 07:33:04;;;;;;;15.23;12.57;;;3.00;99.90;;;;;;5052918;28;20063;-58
2022/03/08 07:35:30;;;;;;;15.35;11.18;;;3.30;99.90;;;;;;5055452;28;20495;-58
2022/03/08 07:37:56;;;;;;;15.23;12.20;;;3.70;99.90;;;;;;5044953;28;20072;-58
2022/03/08 07:40:22;;;;;;;16.98;12.00;;;4.00;99.90;;;;;;5031994;28;20042;-58
2022/03/08 07:42:48;;;;;;;16.45;12.52;;;4.20;99.90;;;;;;5038504;28;20036;-58
2022/03/08 07:45:14;;;;;;;13.73;11.43;;;4.50;99.90;;;;;;5053958;28;20080;-58
2022/03/08 07:47:41;;;;;;;13.95;12.07;;;4.70;99.90;;;;;;5035598;28;20053;-58
2022/03/08 07:50:07;;;;;;;15.23;11.20;;;5.00;99.90;;;;;;5054051;28;20056;-58
2022/03/08 07:52:34;;;;;;;14.60;11.30;;;5.40;99.90;;;;;;5047804;28;20048;-57
2022/03/08 07:55:00;;;;;;;13.27;11.48;;;5.60;99.90;;;;;;5047477;28;20530;-58
2022/03/08 07:57:26;;;;;;;16.48;11.27;;;5.80;99.90;;;;;;5036667;28;20540;-58
2022/03/08 07:59:52;;;;;;;11.93;10.73;;;6.00;99.90;;;;;;5042677;28;20052;-57
2022/03/08 08:02:18;;;;;;;12.77;10.88;;;6.30;99.90;;;;;;5043770;28;20036;-57
2022/03/08 08:04:45;;;;;;;12.23;10.95;;;6.60;99.90;;;;;;5040149;28;20543;-57
2022/03/08 08:07:11;;;;;;;12.15;10.55;;;7.00;99.90;;;;;;5041953;28;20679;-57
2022/03/08 08:09:37;;;;;;;12.98;11.20;;;7.20;99.90;;;;;;5041184;28;20164;-57
2022/03/08 08:12:04;;;;;;;12.80;11.43;;;7.40;99.90;;;;;;5039267;28;20065;-57
2022/03/08 08:14:30;;;;;;;13.43;11.43;;;7.70;99.90;;;;;;5039072;28;20056;-56
2022/03/08 08:16:56;;;;;;;13.02;11.10;;;8.10;99.90;;;;;;5042137;28;20041;-57
2022/03/08 08:19:22;;;;;;;14.55;10.82;;;8.30;99.90;;;;;;5040569;28;20045;-57
2022/03/08 08:21:48;;;;;;;13.38;11.15;;;8.70;99.90;;;;;;5023049;28;20074;-58
2022/03/08 08:24:15;;;;;;;13.23;11.05;;;8.90;97.50;;;;;;5039046;28;20052;-57
2022/03/08 08:26:41;;;;;;;12.43;10.75;;;8.90;76.50;;;;;;5041590;28;20052;-57
2022/03/08 08:29:07;;;;;;;17.63;10.77;;;9.10;72.40;;;;;;5042066;28;20098;-57
2022/03/08 08:31:33;;;;;;;11.63;10.43;;;9.10;66.10;;;;;;5040137;28;20459;-57
2022/03/08 08:33:59;;;;;;;12.05;10.60;;;9.40;64.00;;;;;;5020718;28;20496;-57
2022/03/08 08:36:26;;;;;;;10.63;9.48;;;9.60;63.40;;;;;;5040527;28;20052;-57
2022/03/08 08:38:52;;;;;;;17.25;10.27;;;9.50;60.40;;;;;;5042005;28;20095;-58
2022/03/08 08:41:18;;;;;;;12.45;10.05;;;10.10;61.00;;;;;;5039853;28;20041;-58
2022/03/08 08:43:44;;;;;;;12.73;10.65;;;10.30;58.20;;;;;;5041362;28;20044;-57
2022/03/08 08:46:11;;;;;;;11.75;10.23;;;10.80;57.90;;;;;;5009822;28;20044;-57
2022/03/08 08:48:37;;;;;;;10.90;9.77;;;11.00;58.00;;;;;;5046749;28;20478;-57
2022/03/08 08:51:03;;;;;;;11.93;9.63;;;11.00;56.90;;;;;;5045017;28;20049;-57
2022/03/08 08:53:29;;;;;;;10.68;9.52;;;10.90;56.00;;;;;;5026823;28;20045;-57
2022/03/08 08:55:55;;;;;;;10.98;9.73;;;10.80;54.90;;;;;;5042489;28;20063;-57
2022/03/08 08:58:21;;;;;;;11.38;9.65;;;11.30;54.50;;;;;;5044987;28;20128;-56
2022/03/08 09:00:48;;;;;;;13.77;10.85;;;11.20;53.30;;;;;;5058338;28;20066;-58
2022/03/08 09:03:17;;;;;;;11.20;9.95;;;11.40;53.50;;;;;;5051300;28;20057;-57
2022/03/08 09:05:44;;;;;;;10.35;9.27;;;11.50;52.90;;;;;;5051290;28;20052;-57
2022/03/08 09:08:11;;;;;;;10.93;9.80;;;11.90;53.50;;;;;;5048291;28;20591;-57
2022/03/08 09:10:37;;;;;;;11.32;9.07;;;11.80;52.50;;;;;;5061555;28;20072;-57
2022/03/08 09:13:05;;;;;;;10.95;9.68;;;11.90;52.10;;;;;;5029265;28;20088;-56
2022/03/08 09:15:31;;;;;;;10.38;9.25;;;12.00;52.00;;;;;;5044013;28;20059;-57
2022/03/08 09:17:59;;;;;;;10.85;9.73;;;12.00;51.00;;;;;;5045091;28;20072;-57
2022/03/08 09:20:26;;;;;;;10.43;9.32;;;12.50;50.70;;;;;;5034321;28;20071;-57
2022/03/08 09:22:53;;;;;;;12.40;9.40;;;12.60;50.00;;;;;;5043317;28;20515;-57
2022/03/08 09:25:19;;;;;;;10.18;9.00;;;12.60;50.10;;;;;;5045333;28;20091;-58
2022/03/08 09:27:46;;;;;;;9.18;8.23;;;12.80;49.70;;;;;;5043983;28;20080;-57
2022/03/08 09:30:12;;;;;;;10.50;8.90;;;12.60;48.80;;;;;;5014023;28;20798;-57
2022/03/08 09:32:39;;;;;;;10.80;8.15;;;12.60;48.50;;;;;;5044314;28;20072;-57
2022/03/08 09:35:05;;;;;;;10.50;8.50;;;13.00;48.40;;;;;;5040335;28;20053;-57
2022/03/08 09:37:32;;;;;;;9.85;8.25;;;13.00;47.60;;;;;;5036727;28;20040;-57
2022/03/08 09:39:58;;;;;;;10.52;9.40;;;13.20;47.50;;;;;;5039244;28;20045;-57
2022/03/08 09:42:25;;;;;;;9.65;8.65;;;13.20;47.40;;;;;;5038849;28;20048;-57
2022/03/08 09:44:51;;;;;;;10.18;8.15;;;13.20;46.80;;;;;;5006612;28;20052;-57
2022/03/08 09:47:18;;;;;;;9.88;8.10;;;13.20;45.70;;;;;;5040721;28;20056;-58
2022/03/08 09:49:45;;;;;;;9.90;8.38;;;13.40;46.10;;;;;;5040611;28;20045;-57
2022/03/08 09:52:11;;;;;;;9.60;8.52;;;13.80;46.30;;;;;;5040985;28;20045;-57
2022/03/08 09:54:38;;;;;;;9.85;8.18;;;13.60;45.60;;;;;;5039757;28;20060;-57
2022/03/08 09:57:11;;;;;;;8.80;7.65;;;13.40;45.70;;;;;;5037509;28;20099;-57
2022/03/08 09:59:37;;;;;;;10.57;7.70;;;13.90;45.30;;;;;;5039646;28;20079;-57
2022/03/08 10:02:04;;;;;;;8.20;7.38;;;13.40;44.40;;;;;;5041007;28;20049;-56
2022/03/08 10:04:30;;;;;;;10.70;7.75;;;13.80;43.90;;;;;;5040318;28;20057;-57
2022/03/08 10:06:57;;;;;;;10.73;7.45;;;14.10;45.00;;;;;;5020945;28;20484;-56
2022/03/08 10:09:24;;;;;;;8.63;7.55;;;13.70;43.00;;;;;;5042302;28;20067;-56
2022/03/08 10:11:52;;;;;;;9.35;8.35;;;13.60;43.50;;;;;;5059615;28;20059;-56
2022/03/08 10:14:39;;;;;;;9.63;8.65;;;13.60;43.20;;;;;;5040882;28;20749;-57
2022/03/08 10:17:06;;;;;;;8.40;7.47;;;13.90;44.10;;;;;;5057744;28;20033;-55
2022/03/08 10:19:46;;;;;;;10.27;8.02;;;14.20;43.70;;;;;;5043108;28;20167;-57
2022/03/08 10:22:24;;;;;;;10.75;8.63;;;14.30;42.40;;;;;;5034357;28;20167;-56
2022/03/08 10:24:51;;;;;;;9.48;8.43;;;14.60;42.10;;;;;;5037528;28;20056;-57
2022/03/08 10:27:19;;;;;;;8.82;7.68;;;14.40;42.60;;;;;;5038561;28;20513;-57
2022/03/08 10:29:49;;;;;;;9.68;7.35;;;14.40;42.00;;;;;;5021512;28;20052;-57
2022/03/08 10:32:19;;;;;;;8.55;7.65;;;14.40;42.50;;;;;;5038666;28;20057;-57
2022/03/08 10:34:47;;;;;;;10.30;7.45;;;14.50;42.30;;;;;;5038572;28;20051;-57
2022/03/08 10:37:20;;;;;;;9.57;7.28;;;14.80;42.50;;;;;;5040078;28;20049;-57
2022/03/08 10:40:08;;;;;;;8.65;7.70;;;14.40;41.20;;;;;;5040157;28;20762;-57
2022/03/08 10:42:36;;;;;;;8.68;6.28;;;14.30;41.20;;;;;;5056422;28;20080;-57
2022/03/08 10:45:07;;;;;;;8.07;6.20;;;14.10;41.60;;;;;;5039425;28;20041;-57
2022/03/08 10:47:39;;;;;;;8.27;6.50;;;13.80;41.10;;;;;;5037613;28;20504;-58
2022/03/08 10:50:06;;;;;;;8.15;6.65;;;14.20;41.90;;;;;;5039845;28;20048;-57
2022/03/08 10:52:37;;;;;;;11.02;7.05;;;14.50;41.20;;;;;;5037334;28;20053;-57
2022/03/08 10:55:13;;;;;;;7.43;6.67;;;14.50;40.50;;;;;;5038197;28;20131;-57
2022/03/08 10:57:51;;;;;;;7.35;5.63;;;14.70;40.50;;;;;;5037603;28;20774;-57
2022/03/08 11:00:23;;;;;;;7.68;5.75;;;14.90;39.50;;;;;;5039621;28;20072;-57
2022/03/08 11:03:08;;;;;;;7.25;5.55;;;15.10;40.80;;;;;;5038623;28;20139;-57
2022/03/08 11:05:39;;;;;;;8.68;5.07;;;15.30;39.60;;;;;;5036964;28;20547;-57
2022/03/08 11:08:07;;;;;;;5.88;5.15;;;15.30;38.00;;;;;;5038980;28;20048;-57
2022/03/08 11:10:34;;;;;;;7.05;5.88;;;15.50;37.70;;;;;;5043662;28;20079;-57
2022/03/08 11:13:01;;;;;;;5.97;5.30;;;15.30;37.80;;;;;;5041265;28;20049;-57
2022/03/08 11:15:31;;;;;;;6.32;5.30;;;15.90;38.30;;;;;;5042597;28;20053;-57
2022/03/08 11:17:58;;;;;;;7.00;5.40;;;15.80;37.00;;;;;;5041043;28;20048;-57
2022/03/08 11:20:27;;;;;;;6.80;5.40;;;15.80;36.90;;;;;;5042083;28;20048;-57
2022/03/08 11:22:57;;;;;;;6.85;5.30;;;15.80;36.60;;;;;;5042111;28;20052;-57
2022/03/08 11:25:30;;;;;;;6.95;5.30;;;15.70;37.60;;;;;;5043627;28;20056;-57
2022/03/08 11:27:56;;;;;;;6.03;5.43;;;15.80;37.30;;;;;;5041902;28;20049;-57
2022/03/08 11:30:44;;;;;;;5.53;4.75;;;15.70;37.60;;;;;;5043831;28;20090;-57
2022/03/08 11:33:31;;;;;;;6.43;4.85;;;16.20;38.70;;;;;;5042729;28;20048;-57
2022/03/08 11:36:02;;;;;;;6.65;5.28;;;16.10;37.00;;;;;;5042639;28;20057;-58
2022/03/08 11:38:28;;;;;;;6.93;5.37;;;15.80;37.50;;;;;;5039575;28;20106;-56
2022/03/08 11:40:57;;;;;;;6.25;4.82;;;15.70;37.30;;;;;;5043182;28;20053;-58
2022/03/08 11:43:43;;;;;;;6.05;4.95;;;16.20;37.80;;;;;;5023311;28;20128;-56
2022/03/08 11:46:17;;;;;;;36.33;31.25;;;16.20;37.40;;;;;;5043134;28;20136;-55
2022/03/08 11:48:58;;;;;;;11.10;7.47;;;15.90;38.10;;;;;;5044437;28;20049;-55
2022/03/08 11:51:27;;;;;;;6.28;5.13;;;16.50;39.50;;;;;;5040326;28;20053;-56
2022/03/08 11:54:08;;;;;;;6.70;4.93;;;15.90;37.40;;;;;;5047112;28;20080;-56
2022/03/08 11:56:45;;;;;;;5.45;4.80;;;16.50;37.20;;;;;;5041107;28;20088;-57
2022/03/08 11:59:12;;;;;;;6.30;4.47;;;16.50;37.60;;;;;;5023299;28;20135;-56
2022/03/08 12:01:38;;;;;;;5.10;4.00;;;16.40;36.60;;;;;;5042888;28;20048;-56
2022/03/08 12:04:10;;;;;;;4.90;3.75;;;16.00;35.40;;;;;;5038315;28;20468;-58
2022/03/08 12:06:38;;;;;;;4.90;3.83;;;16.00;35.90;;;;;;5041092;28;20520;-56
2022/03/08 12:09:15;;;;;;;5.45;4.10;;;16.70;36.00;;;;;;5021127;28;20052;-56
2022/03/08 12:11:57;;;;;;;6.07;4.50;;;16.40;36.20;;;;;;5023477;28;20040;-57
2022/03/08 12:14:27;;;;;;;6.07;4.25;;;16.80;35.80;;;;;;5038617;28;20595;-57
2022/03/08 12:17:15;;;;;;;5.63;4.32;;;17.10;36.60;;;;;;5041548;28;20800;-56
2022/03/08 12:19:50;;;;;;;6.80;4.15;;;16.90;35.70;;;;;;5056236;28;20048;-56
2022/03/08 12:22:19;;;;;;;6.55;4.32;;;17.20;35.70;;;;;;5042084;28;20056;-56
2022/03/08 12:24:55;;;;;;;6.47;4.40;;;17.40;36.30;;;;;;5041723;28;20479;-57
2022/03/08 12:27:23;;;;;;;4.75;4.00;;;17.30;34.40;;;;;;5054559;28;20045;-56
2022/03/08 12:30:05;;;;;;;6.25;3.55;;;16.90;35.00;;;;;;5035049;28;20086;-57
2022/03/08 12:32:43;;;;;;;6.10;3.88;;;16.80;35.40;;;;;;5041166;28;20080;-57
2022/03/08 12:35:21;;;;;;;5.60;4.32;;;16.60;34.30;;;;;;5026206;28;20067;-57
2022/03/08 12:37:55;;;;;;;5.70;4.45;;;16.80;35.10;;;;;;5057172;28;20037;-56
2022/03/08 12:40:21;;;;;;;7.10;4.78;;;17.10;34.80;;;;;;5041025;28;20091;-57
2022/03/08 12:42:59;;;;;;;6.53;4.30;;;17.00;34.40;;;;;;5038994;28;20045;-57